createdAt,value
2022-12-19T00:01:26.745Z,27.88
2022-12-19T00:04:08.600Z,26.05
2022-12-19T00:06:37.819Z,25.30
2022-12-19T00:09:05.421Z,27.23
2022-12-19T00:11:32.434Z,24.42
2022-12-19T00:13:59.557Z,28.65
2022-12-19T00:16:28.872Z,28.30
2022-12-19T00:18:58.069Z,30.00
2022-12-19T00:21:26.682Z,23.02
2022-12-19T00:23:53.421Z,23.58
2022-12-19T00:26:22.762Z,26.63
2022-12-19T00:28:52.127Z,25.40
2022-12-19T00:31:19.941Z,24.73
2022-12-19T00:33:47.549Z,28.00
2022-12-19T00:36:22.633Z,31.27
2022-12-19T00:38:51.615Z,25.02
2022-12-19T00:41:29.790Z,26.10
2022-12-19T00:44:07.804Z,23.48
2022-12-19T00:46:35.556Z,22.70
2022-12-19T00:49:02.765Z,23.48
2022-12-19T00:51:30.694Z,27.00
2022-12-19T00:53:57.883Z,27.17
2022-12-19T00:56:30.942Z,24.55
2022-12-19T00:59:00.005Z,22.38
2022-12-19T01:01:29.703Z,26.95
2022-12-19T01:04:27.313Z,22.75
2022-12-19T01:06:44.659Z,23.60
2022-12-19T01:09:12.845Z,24.02
2022-12-19T01:11:57.823Z,21.27
2022-12-19T01:14:24.308Z,19.02
2022-12-19T01:16:51.475Z,24.27
2022-12-19T01:19:17.949Z,23.80
2022-12-19T01:21:44.509Z,21.75
2022-12-19T01:24:10.946Z,22.35
2022-12-19T01:26:37.509Z,17.42
2022-12-19T01:29:05.346Z,19.98
2022-12-19T01:31:33.369Z,19.77
2022-12-19T01:34:00.859Z,17.75
2022-12-19T01:36:28.126Z,25.25
2022-12-19T01:38:58.506Z,19.75
2022-12-19T01:41:25.347Z,21.98
2022-12-19T01:44:01.850Z,18.75
2022-12-19T01:46:44.558Z,18.25
2022-12-19T01:49:19.148Z,20.40
2022-12-19T01:51:49.348Z,21.92
2022-12-19T01:54:25.411Z,21.00
2022-12-19T01:56:55.065Z,24.52
2022-12-19T01:59:28.833Z,26.63
2022-12-19T02:02:03.133Z,26.98
2022-12-19T02:04:32.329Z,23.13
2022-12-19T02:07:15.133Z,24.17
2022-12-19T02:09:45.361Z,26.13
2022-12-19T02:12:11.905Z,26.30
2022-12-19T02:14:38.744Z,24.05
2022-12-19T02:17:23.923Z,31.13
2022-12-19T02:20:34.342Z,26.52
2022-12-19T02:23:00.634Z,24.52
2022-12-19T02:25:49.545Z,23.60
2022-12-19T02:28:39.484Z,23.08
2022-12-19T02:31:19.478Z,24.17
2022-12-19T02:34:16.512Z,22.15
2022-12-19T02:36:52.842Z,25.70
2022-12-19T02:39:29.700Z,36.83
2022-12-19T02:41:59.579Z,29.30
2022-12-19T02:44:31.475Z,22.88
2022-12-19T02:47:00.670Z,26.90
2022-12-19T02:49:31.023Z,25.60
2022-12-19T02:51:57.824Z,24.90
2022-12-19T02:54:25.049Z,22.55
2022-12-19T02:57:32.346Z,23.70
2022-12-19T03:00:17.822Z,22.10
2022-12-19T03:03:06.717Z,23.35
2022-12-19T03:05:36.179Z,25.02
2022-12-19T03:08:28.614Z,26.45
2022-12-19T03:11:00.897Z,20.23
2022-12-19T03:13:46.336Z,33.60
2022-12-19T03:16:13.453Z,23.55
2022-12-19T03:18:40.626Z,28.65
2022-12-19T03:21:12.280Z,18.15
2022-12-19T03:23:39.827Z,20.50
2022-12-19T03:26:10.715Z,19.13
2022-12-19T03:28:44.186Z,16.80
2022-12-19T03:31:14.037Z,19.33
2022-12-19T03:33:43.006Z,21.23
2022-12-19T03:36:15.711Z,22.27
2022-12-19T03:38:45.335Z,19.75
2022-12-19T03:41:14.303Z,21.98
2022-12-19T03:43:43.206Z,21.17
2022-12-19T03:46:15.631Z,14.40
2022-12-19T03:48:48.211Z,21.48
2022-12-19T03:51:38.800Z,19.20
2022-12-19T03:54:21.884Z,14.80
2022-12-19T03:56:54.253Z,19.08
2022-12-19T03:59:24.074Z,14.30
2022-12-19T04:01:53.991Z,15.00
2022-12-19T04:04:23.336Z,16.33
2022-12-19T04:06:51.883Z,19.83
2022-12-19T04:09:22.695Z,14.18
2022-12-19T04:11:58.712Z,14.68
2022-12-19T04:14:34.588Z,15.18
2022-12-19T04:17:13.472Z,12.13
2022-12-19T04:19:47.910Z,11.73
2022-12-19T04:22:22.639Z,11.57
2022-12-19T04:24:51.127Z,12.32
2022-12-19T04:27:20.558Z,17.02
2022-12-19T04:29:49.336Z,13.40
2022-12-19T04:32:15.998Z,10.95
2022-12-19T04:34:43.161Z,12.48
2022-12-19T04:37:11.072Z,11.73
2022-12-19T04:39:37.751Z,12.38
2022-12-19T04:42:04.426Z,12.65
2022-12-19T04:44:31.037Z,11.82
2022-12-19T04:46:57.473Z,12.27
2022-12-19T04:49:23.876Z,11.85
2022-12-19T04:51:50.840Z,10.43
2022-12-19T04:54:17.293Z,14.13
2022-12-19T04:56:43.699Z,9.30
2022-12-19T04:59:10.535Z,12.25
2022-12-19T05:01:37.070Z,11.25
2022-12-19T05:04:04.862Z,12.93
2022-12-19T05:06:31.739Z,10.57
2022-12-19T05:08:58.534Z,11.20
2022-12-19T05:11:24.906Z,10.60
2022-12-19T05:13:51.605Z,9.27
2022-12-19T05:16:18.202Z,8.73
2022-12-19T05:18:44.966Z,11.60
2022-12-19T05:21:11.495Z,11.77
2022-12-19T05:23:37.984Z,13.27
2022-12-19T05:26:05.607Z,8.30
2022-12-19T05:28:33.076Z,9.57
2022-12-19T05:31:05.208Z,9.45
2022-12-19T05:33:31.729Z,7.97
2022-12-19T05:35:58.165Z,7.80
2022-12-19T05:38:25.885Z,7.57
2022-12-19T05:40:52.243Z,8.70
2022-12-19T05:43:18.652Z,8.15
2022-12-19T05:45:45.060Z,21.45
2022-12-19T05:48:11.547Z,15.95
2022-12-19T05:50:38.077Z,6.47
2022-12-19T05:53:04.429Z,10.18
2022-12-19T05:55:30.969Z,9.53
2022-12-19T05:57:57.444Z,91.95
2022-12-19T06:00:23.889Z,7.10
2022-12-19T06:02:50.475Z,5.82
2022-12-19T06:05:17.139Z,5.63
2022-12-19T06:07:43.540Z,8.77
2022-12-19T06:10:09.993Z,6.55
2022-12-19T06:12:36.431Z,9.60
2022-12-19T06:15:03.027Z,8.75
2022-12-19T06:17:29.421Z,8.75
2022-12-19T06:19:55.812Z,6.47
2022-12-19T06:22:22.285Z,7.35
2022-12-19T06:24:48.670Z,7.00
2022-12-19T06:27:15.049Z,6.57
2022-12-19T06:29:41.471Z,5.88
2022-12-19T06:32:08.734Z,8.13
2022-12-19T06:35:04.989Z,7.63
2022-12-19T06:37:21.645Z,7.68
2022-12-19T06:39:50.649Z,3.85
2022-12-19T06:42:23.105Z,7.38
2022-12-19T06:44:51.375Z,5.67
2022-12-19T06:47:18.528Z,5.45
2022-12-19T06:49:48.549Z,4.75
2022-12-19T06:52:15.874Z,6.45
2022-12-19T06:54:42.448Z,6.20
2022-12-19T06:57:08.947Z,4.60
2022-12-19T06:59:35.336Z,5.10
2022-12-19T07:02:16.765Z,4.88
2022-12-19T07:04:54.353Z,6.65
2022-12-19T07:07:20.768Z,7.53
2022-12-19T07:09:48.310Z,7.33
2022-12-19T07:12:14.832Z,8.57
2022-12-19T07:14:41.229Z,6.95
2022-12-19T07:17:07.632Z,9.68
2022-12-19T07:19:34.987Z,3.55
2022-12-19T07:22:03.647Z,6.00
2022-12-19T07:24:30.604Z,10.57
2022-12-19T07:26:57.682Z,8.75
2022-12-19T07:29:24.084Z,7.75
2022-12-19T07:31:50.495Z,8.43
2022-12-19T07:34:16.969Z,7.15
2022-12-19T07:36:43.377Z,7.45
2022-12-19T07:39:09.852Z,7.47
2022-12-19T07:41:37.549Z,6.97
2022-12-19T07:44:04.785Z,9.07
2022-12-19T07:46:31.232Z,5.70
2022-12-19T07:48:57.623Z,8.95
2022-12-19T07:51:24.181Z,10.13
2022-12-19T07:53:50.552Z,7.35
2022-12-19T07:56:17.358Z,9.82
2022-12-19T07:58:44.667Z,6.53
2022-12-19T08:01:12.302Z,7.45
2022-12-19T08:03:38.815Z,11.95
2022-12-19T08:06:07.221Z,7.03
2022-12-19T08:08:35.264Z,6.88
2022-12-19T08:11:12.292Z,10.87
2022-12-19T08:13:43.264Z,6.45
2022-12-19T08:16:12.765Z,7.07
2022-12-19T08:18:39.170Z,7.45
2022-12-19T08:21:08.162Z,5.78
2022-12-19T08:23:34.621Z,7.07
2022-12-19T08:26:03.818Z,5.65
2022-12-19T08:28:32.015Z,6.75
2022-12-19T08:31:00.728Z,8.65
2022-12-19T08:33:27.275Z,8.80
2022-12-19T08:35:53.776Z,8.23
2022-12-19T08:38:20.144Z,10.15
2022-12-19T08:40:52.803Z,5.13
2022-12-19T08:43:19.432Z,6.15
2022-12-19T08:45:48.874Z,7.57
2022-12-19T08:48:15.650Z,5.37
2022-12-19T08:50:50.404Z,8.40
2022-12-19T08:53:21.430Z,6.45
2022-12-19T08:55:55.984Z,7.00
2022-12-19T08:58:23.638Z,6.80
2022-12-19T09:00:55.527Z,7.40
2022-12-19T09:03:24.539Z,5.93
2022-12-19T09:06:06.952Z,5.68
2022-12-19T09:08:37.555Z,7.72
2022-12-19T09:11:13.661Z,9.30
2022-12-19T09:13:41.791Z,5.73
2022-12-19T09:16:18.395Z,8.38
2022-12-19T09:18:48.754Z,4.72
2022-12-19T09:21:16.827Z,6.85
2022-12-19T09:23:48.610Z,6.65
2022-12-19T09:26:16.541Z,5.37
2022-12-19T09:28:43.241Z,6.20
2022-12-19T09:31:16.043Z,5.63
2022-12-19T09:33:43.963Z,5.82
2022-12-19T09:36:22.942Z,4.68
2022-12-19T09:38:50.192Z,5.30
2022-12-19T09:41:22.521Z,6.75
2022-12-19T09:44:10.728Z,7.30
2022-12-19T09:46:43.148Z,6.97
2022-12-19T09:49:16.686Z,7.50
2022-12-19T09:52:01.009Z,5.27
2022-12-19T09:54:50.280Z,5.88
2022-12-19T09:57:25.726Z,5.00
2022-12-19T10:00:00.061Z,3.90
2022-12-19T10:02:50.990Z,6.80
2022-12-19T10:06:57.260Z,7.97
2022-12-19T10:08:40.123Z,4.00
2022-12-19T10:12:43.318Z,9.48
2022-12-19T10:14:48.242Z,4.70
2022-12-19T10:17:30.295Z,7.55
2022-12-19T10:20:28.249Z,5.80
2022-12-19T10:23:20.167Z,7.72
2022-12-19T10:25:52.325Z,6.13
2022-12-19T10:28:55.458Z,4.70
2022-12-19T10:31:38.007Z,5.70
2022-12-19T10:34:18.650Z,8.60
2022-12-19T10:39:46.649Z,4.68
2022-12-19T10:42:30.200Z,5.80
2022-12-19T10:44:59.120Z,2.97
2022-12-19T10:47:25.747Z,6.50
2022-12-19T10:49:52.175Z,5.88
2022-12-19T10:52:45.625Z,6.50
2022-12-19T10:55:34.571Z,5.07
2022-12-19T10:58:12.865Z,5.15
2022-12-19T11:00:47.191Z,4.73
2022-12-19T11:03:19.395Z,3.78
2022-12-19T11:05:57.983Z,5.72
2022-12-19T11:08:25.037Z,6.70
2022-12-19T11:12:01.221Z,5.20
2022-12-19T11:18:26.415Z,3.60
2022-12-19T11:23:30.599Z,5.53
2022-12-19T11:29:30.009Z,5.82
2022-12-19T11:29:30.142Z,4.43
2022-12-19T11:29:33.380Z,7.32
2022-12-19T11:30:45.504Z,3.20
2022-12-19T11:34:16.644Z,5.05
2022-12-19T11:37:17.346Z,6.20
2022-12-19T11:40:10.131Z,3.95
2022-12-19T11:43:41.881Z,7.67
2022-12-19T11:46:00.297Z,4.70
2022-12-19T11:48:38.678Z,3.90
2022-12-19T11:51:14.417Z,8.75
2022-12-19T11:54:04.613Z,7.35
2022-12-19T11:56:31.058Z,3.53
2022-12-19T11:59:07.571Z,4.75
2022-12-19T12:01:58.145Z,3.47
2022-12-19T12:04:51.368Z,4.13
2022-12-19T12:08:06.536Z,4.95
2022-12-19T12:13:50.594Z,6.23
2022-12-19T12:19:04.512Z,4.38
2022-12-19T12:27:54.415Z,4.07
2022-12-19T12:31:02.134Z,3.33
2022-12-19T12:31:12.276Z,4.32
2022-12-19T12:31:47.567Z,5.18
2022-12-19T12:35:09.296Z,3.63
2022-12-19T12:35:56.813Z,7.47
2022-12-19T12:37:54.018Z,4.30
2022-12-19T12:38:51.103Z,3.10
2022-12-19T12:41:47.139Z,4.23
2022-12-19T12:44:15.009Z,3.97
2022-12-19T12:46:48.148Z,3.38
2022-12-19T12:49:23.924Z,4.88
2022-12-19T12:51:51.316Z,4.68
2022-12-19T12:54:18.985Z,3.40
2022-12-19T12:56:46.755Z,3.58
2022-12-19T12:59:23.923Z,2.60
2022-12-19T13:01:56.985Z,3.28
2022-12-19T13:04:35.668Z,3.78
2022-12-19T13:07:12.725Z,3.90
2022-12-19T13:09:40.535Z,5.45
2022-12-19T13:12:44.962Z,4.80
2022-12-19T13:15:29.896Z,3.33
2022-12-19T13:17:56.262Z,2.72
2022-12-19T13:20:27.831Z,3.40
2022-12-19T13:22:57.986Z,8.13
2022-12-19T13:25:30.423Z,3.10
2022-12-19T13:27:58.965Z,2.80
2022-12-19T13:30:27.866Z,2.97
2022-12-19T13:32:54.286Z,4.50
2022-12-19T13:36:45.918Z,4.32
2022-12-19T13:39:54.163Z,3.35
2022-12-19T13:41:49.585Z,4.15
2022-12-19T13:44:21.728Z,2.70
2022-12-19T13:46:48.845Z,2.67
2022-12-19T13:49:25.105Z,3.15
2022-12-19T13:51:57.606Z,4.07
2022-12-19T13:54:31.375Z,4.38
2022-12-19T13:56:59.141Z,4.00
2022-12-19T13:59:30.437Z,4.00
2022-12-19T14:02:08.300Z,3.92
2022-12-19T14:04:34.910Z,18.15
2022-12-19T14:07:19.590Z,7.13
2022-12-19T14:11:30.111Z,10.48
2022-12-19T14:14:00.860Z,4.57
2022-12-19T14:15:51.813Z,11.20
2022-12-19T14:18:44.892Z,33.78
2022-12-19T14:22:09.800Z,27.20
2022-12-19T14:24:10.881Z,10.50
2022-12-19T14:28:25.300Z,14.00
2022-12-19T14:30:25.924Z,8.63
2022-12-19T14:33:47.500Z,4.72
2022-12-19T14:36:07.717Z,2.88
2022-12-19T14:39:20.437Z,4.07
2022-12-19T14:41:08.305Z,3.17
2022-12-19T14:43:56.197Z,2.88
2022-12-19T14:52:34.788Z,3.53
2022-12-19T14:54:14.084Z,3.00
2022-12-19T14:54:26.179Z,3.75
2022-12-19T14:56:12.429Z,4.30
2022-12-19T14:58:50.754Z,4.22
2022-12-19T15:01:10.131Z,3.65
2022-12-19T15:04:49.200Z,3.38
2022-12-19T15:07:09.009Z,2.65
2022-12-19T15:10:58.249Z,2.43
2022-12-19T15:14:48.490Z,2.70
2022-12-19T15:15:58.896Z,2.53
2022-12-19T15:18:32.973Z,3.78
2022-12-19T15:21:05.276Z,3.30
2022-12-19T15:23:32.354Z,3.53
2022-12-19T15:26:08.437Z,1.85
2022-12-19T15:28:55.533Z,3.42
2022-12-19T15:31:38.362Z,2.83
2022-12-19T15:34:44.447Z,2.50
2022-12-19T15:37:14.361Z,6.43
2022-12-19T15:39:41.510Z,4.55
2022-12-19T15:42:21.552Z,2.72
2022-12-19T15:44:49.267Z,6.40
2022-12-19T15:47:37.009Z,3.63
2022-12-19T15:50:16.895Z,3.57
2022-12-19T15:52:43.354Z,3.67
2022-12-19T15:55:18.036Z,3.20
2022-12-19T15:57:47.892Z,2.45
2022-12-19T16:00:23.106Z,3.80
2022-12-19T16:05:37.249Z,3.72
2022-12-19T16:08:11.601Z,3.03
2022-12-19T16:10:38.216Z,4.07
2022-12-19T16:13:04.684Z,4.50
2022-12-19T16:15:33.312Z,9.52
2022-12-19T16:18:03.250Z,8.23
2022-12-19T16:20:39.391Z,3.35
2022-12-19T16:23:06.703Z,4.72
2022-12-19T16:25:45.337Z,4.77
2022-12-19T16:28:16.459Z,4.90
2022-12-19T16:30:44.434Z,5.55
2022-12-19T16:33:25.709Z,3.38
2022-12-19T16:36:04.104Z,3.15
2022-12-19T16:38:31.480Z,4.10
2022-12-19T16:40:57.924Z,3.83
2022-12-19T16:43:31.887Z,3.60
2022-12-19T16:46:39.579Z,4.30
2022-12-19T16:49:14.771Z,7.32
2022-12-19T16:51:41.331Z,2.28
2022-12-19T16:54:07.772Z,2.97
2022-12-19T16:56:47.848Z,4.80
2022-12-19T16:59:30.780Z,3.78
2022-12-19T17:01:58.606Z,3.42
2022-12-19T17:04:25.983Z,3.38
2022-12-19T17:06:53.706Z,4.97
2022-12-19T17:09:23.116Z,3.17
2022-12-19T17:12:01.188Z,3.28
2022-12-19T17:14:30.473Z,3.03
2022-12-19T17:17:01.250Z,4.22
2022-12-19T17:19:34.520Z,2.57
2022-12-19T17:22:00.883Z,3.20
2022-12-19T17:24:27.453Z,4.95
2022-12-19T17:26:53.883Z,6.80
2022-12-19T17:29:20.233Z,4.75
2022-12-19T17:31:46.705Z,5.70
2022-12-19T17:34:38.537Z,3.78
2022-12-19T17:37:05.253Z,2.75
2022-12-19T17:39:34.072Z,3.17
2022-12-19T17:42:21.556Z,2.72
2022-12-19T17:44:48.160Z,4.30
2022-12-19T17:47:16.245Z,4.35
2022-12-19T17:49:43.251Z,4.35
2022-12-19T17:52:14.646Z,1.83
2022-12-19T17:54:41.092Z,3.42
2022-12-19T17:57:13.395Z,3.83
2022-12-19T17:59:40.842Z,5.32
2022-12-19T18:02:18.509Z,3.00
2022-12-19T18:04:45.162Z,6.18
2022-12-19T18:07:15.565Z,6.95
2022-12-19T18:09:42.108Z,3.93
2022-12-19T18:12:08.650Z,2.65
2022-12-19T18:14:35.498Z,2.83
2022-12-19T18:17:03.135Z,3.47
2022-12-19T18:19:32.100Z,2.90
2022-12-19T18:21:58.875Z,4.47
2022-12-19T18:24:25.834Z,2.60
2022-12-19T18:26:52.303Z,4.25
2022-12-19T18:29:18.690Z,2.78
2022-12-19T18:31:50.911Z,4.55
2022-12-19T18:34:23.888Z,3.90
2022-12-19T18:36:51.799Z,3.58
2022-12-19T18:39:29.049Z,3.05
2022-12-19T18:41:55.471Z,6.10
2022-12-19T18:44:23.055Z,5.13
2022-12-19T18:46:51.739Z,6.83
2022-12-19T18:49:19.231Z,7.07
2022-12-19T18:51:45.890Z,5.97
2022-12-19T18:54:18.178Z,5.63
2022-12-19T18:56:45.195Z,5.55
2022-12-19T18:59:11.999Z,4.97
2022-12-19T19:01:43.991Z,3.10
2022-12-19T19:04:13.012Z,5.53
2022-12-19T19:06:43.608Z,3.95
2022-12-19T19:09:18.187Z,2.65
2022-12-19T19:11:45.060Z,7.90
2022-12-19T19:14:11.546Z,5.55
2022-12-19T19:16:39.730Z,2.33
2022-12-19T19:19:10.594Z,3.92
2022-12-19T19:21:38.143Z,2.85
2022-12-19T19:24:23.326Z,3.00
2022-12-19T19:26:49.821Z,2.80
2022-12-19T19:29:18.872Z,4.20
2022-12-19T19:31:47.677Z,7.13
2022-12-19T19:34:20.767Z,3.60
2022-12-19T19:36:49.449Z,3.73
2022-12-19T19:39:16.759Z,2.50
2022-12-19T19:41:43.102Z,3.65
2022-12-19T19:44:09.511Z,3.33
2022-12-19T19:46:37.061Z,2.88
2022-12-19T19:49:03.515Z,4.63
2022-12-19T19:51:29.919Z,2.90
2022-12-19T19:53:56.347Z,2.78
2022-12-19T19:56:22.794Z,4.65
2022-12-19T19:58:49.249Z,3.42
2022-12-19T20:01:15.776Z,3.83
2022-12-19T20:03:44.572Z,2.97
2022-12-19T20:06:11.419Z,3.10
2022-12-19T20:08:40.131Z,3.08
2022-12-19T20:11:09.124Z,2.45
2022-12-19T20:13:35.661Z,2.57
2022-12-19T20:16:02.943Z,3.38
2022-12-19T20:18:29.503Z,2.80
2022-12-19T20:20:56.023Z,3.15
2022-12-19T20:23:22.402Z,3.53
2022-12-19T20:25:48.864Z,4.88
2022-12-19T20:28:15.244Z,3.20
2022-12-19T20:30:41.701Z,2.58
2022-12-19T20:33:08.180Z,3.30
2022-12-19T20:35:34.587Z,3.08
2022-12-19T20:38:01.116Z,3.20
2022-12-19T20:40:27.766Z,2.70
2022-12-19T20:42:54.353Z,4.22
2022-12-19T20:45:22.473Z,3.08
2022-12-19T20:47:48.898Z,4.22
2022-12-19T20:50:16.118Z,2.77
2022-12-19T20:52:42.678Z,4.50
2022-12-19T20:55:12.446Z,4.43
2022-12-19T20:57:38.831Z,6.18
2022-12-19T21:00:06.882Z,2.92
2022-12-19T21:02:59.876Z,5.30
2022-12-19T21:05:20.710Z,3.08
2022-12-19T21:07:47.266Z,3.47
2022-12-19T21:10:13.863Z,4.80
2022-12-19T21:12:47.123Z,3.00
2022-12-19T21:15:14.220Z,3.33
2022-12-19T21:17:40.593Z,4.90
2022-12-19T21:20:07.733Z,3.45
2022-12-19T21:22:34.176Z,2.33
2022-12-19T21:25:00.611Z,3.50
2022-12-19T21:27:27.098Z,5.63
2022-12-19T21:29:53.540Z,4.78
2022-12-19T21:32:20.033Z,4.80
2022-12-19T21:34:46.534Z,4.57
2022-12-19T21:37:12.918Z,1.98
2022-12-19T21:39:39.314Z,6.40
2022-12-19T21:42:05.729Z,2.70
2022-12-19T21:44:32.113Z,3.47
2022-12-19T21:46:58.595Z,3.97
2022-12-19T21:49:25.044Z,2.47
2022-12-19T21:51:51.529Z,3.10
2022-12-19T21:54:17.962Z,5.30
2022-12-19T21:56:44.415Z,2.60
2022-12-19T21:59:14.058Z,3.90
2022-12-19T22:01:41.675Z,2.95
2022-12-19T22:04:13.718Z,3.23
2022-12-19T22:06:40.263Z,3.53
2022-12-19T22:09:11.893Z,4.28
2022-12-19T22:11:38.468Z,4.10
2022-12-19T22:14:05.551Z,3.42
2022-12-19T22:16:32.601Z,2.97
2022-12-19T22:18:59.152Z,4.03
2022-12-19T22:21:26.511Z,4.82
2022-12-19T22:23:56.224Z,2.88
2022-12-19T22:26:23.675Z,6.13
2022-12-19T22:28:53.208Z,2.47
2022-12-19T22:31:25.127Z,4.88
2022-12-19T22:33:57.976Z,3.08
2022-12-19T22:36:28.388Z,3.85
2022-12-19T22:38:56.431Z,2.78
2022-12-19T22:41:22.958Z,6.00
2022-12-19T22:43:49.358Z,2.30
2022-12-19T22:46:21.433Z,2.35
2022-12-19T22:48:49.187Z,5.22
2022-12-19T22:51:17.944Z,2.78
2022-12-19T22:53:45.152Z,2.13
2022-12-19T22:56:20.691Z,3.10
2022-12-19T22:58:49.334Z,2.60
2022-12-19T23:01:25.060Z,3.78
2022-12-19T23:03:55.403Z,3.35
2022-12-19T23:06:23.607Z,3.00
2022-12-19T23:08:49.955Z,2.90
2022-12-19T23:11:18.958Z,4.88
2022-12-19T23:13:46.327Z,4.20
2022-12-19T23:16:15.816Z,2.22
2022-12-19T23:18:42.944Z,3.00
2022-12-19T23:21:20.960Z,4.38
2022-12-19T23:23:49.509Z,5.18
2022-12-19T23:26:19.134Z,4.07
2022-12-19T23:28:51.568Z,1.73
2022-12-19T23:31:18.149Z,3.73
2022-12-19T23:33:44.575Z,3.97
2022-12-19T23:36:11.152Z,2.30
2022-12-19T23:38:37.596Z,3.90
2022-12-19T23:41:06.876Z,2.05
2022-12-19T23:43:35.503Z,4.03
2022-12-19T23:46:06.793Z,2.88
2022-12-19T23:48:33.375Z,2.40
2022-12-19T23:51:01.300Z,3.20
2022-12-19T23:53:28.410Z,2.00
2022-12-19T23:55:54.923Z,5.17
2022-12-19T23:58:24.634Z,3.00
